createdAt,value
2023-01-30T00:01:33.562Z,65.65
2023-01-30T00:04:17.242Z,65.97
2023-01-30T00:06:49.334Z,65.92
2023-01-30T00:09:21.031Z,65.73
2023-01-30T00:11:52.735Z,65.68
2023-01-30T00:14:24.427Z,65.65
2023-01-30T00:16:56.117Z,65.84
2023-01-30T00:19:27.810Z,65.77
2023-01-30T00:22:02.580Z,66.01
2023-01-30T00:24:34.481Z,66.30
2023-01-30T00:27:06.177Z,65.93
2023-01-30T00:29:37.850Z,65.95
2023-01-30T00:32:09.518Z,65.84
2023-01-30T00:34:41.232Z,66.22
2023-01-30T00:37:13.250Z,66.10
2023-01-30T00:39:44.914Z,65.96
2023-01-30T00:42:35.078Z,66.18
2023-01-30T00:45:25.855Z,66.22
2023-01-30T00:47:59.415Z,66.17
2023-01-30T00:50:42.474Z,65.68
2023-01-30T00:53:17.116Z,66.02
2023-01-30T00:55:51.345Z,66.05
2023-01-30T00:58:26.438Z,65.99
2023-01-30T01:00:58.182Z,65.75
2023-01-30T01:03:29.833Z,65.50
2023-01-30T01:06:01.579Z,65.68
2023-01-30T01:08:33.237Z,65.60
2023-01-30T01:11:04.999Z,65.38
2023-01-30T01:13:36.633Z,65.83
2023-01-30T01:16:08.286Z,65.27
2023-01-30T01:18:39.965Z,65.54
2023-01-30T01:21:11.851Z,65.64
2023-01-30T01:23:43.531Z,65.19
2023-01-30T01:26:15.297Z,65.47
2023-01-30T01:28:47.640Z,65.33
2023-01-30T01:31:20.599Z,65.55
2023-01-30T01:33:53.017Z,65.52
2023-01-30T01:36:52.098Z,65.45
2023-01-30T01:39:18.361Z,65.31
2023-01-30T01:41:50.063Z,65.33
2023-01-30T01:44:24.891Z,65.60
2023-01-30T01:46:58.118Z,65.58
2023-01-30T01:49:36.641Z,65.79
2023-01-30T01:52:15.022Z,65.35
2023-01-30T01:54:58.080Z,65.55
2023-01-30T01:57:47.036Z,65.22
2023-01-30T02:00:21.024Z,65.01
2023-01-30T02:03:02.772Z,65.52
2023-01-30T02:05:38.737Z,65.51
2023-01-30T02:08:15.138Z,65.46
2023-01-30T02:11:00.431Z,64.99
2023-01-30T02:13:32.526Z,65.17
2023-01-30T02:16:06.257Z,65.15
2023-01-30T02:18:41.955Z,65.07
2023-01-30T02:21:43.502Z,64.96
2023-01-30T02:24:43.286Z,64.89
2023-01-30T02:27:43.345Z,65.31
2023-01-30T02:30:24.052Z,64.87
2023-01-30T02:33:15.142Z,65.03
2023-01-30T02:36:04.758Z,64.85
2023-01-30T02:38:49.181Z,64.62
2023-01-30T02:41:36.853Z,64.18
2023-01-30T02:44:27.639Z,64.44
2023-01-30T02:47:22.058Z,64.38
2023-01-30T02:50:00.756Z,64.54
2023-01-30T02:52:34.214Z,64.48
2023-01-30T02:55:19.032Z,64.48
2023-01-30T02:57:51.462Z,64.46
2023-01-30T03:00:55.417Z,64.32
2023-01-30T03:04:05.130Z,64.12
2023-01-30T03:06:55.107Z,64.16
2023-01-30T03:09:39.058Z,63.89
2023-01-30T03:12:26.265Z,63.80
2023-01-30T03:15:13.091Z,63.83
2023-01-30T03:17:47.710Z,63.90
2023-01-30T03:20:21.860Z,63.57
2023-01-30T03:22:54.687Z,63.75
2023-01-30T03:25:29.313Z,63.85
2023-01-30T03:28:03.530Z,63.71
2023-01-30T03:30:35.641Z,63.82
2023-01-30T03:33:14.829Z,63.56
2023-01-30T03:35:52.694Z,63.55
2023-01-30T03:38:24.405Z,63.28
2023-01-30T03:40:56.264Z,62.82
2023-01-30T03:43:27.926Z,62.75
2023-01-30T03:45:59.671Z,62.66
2023-01-30T03:48:34.160Z,62.76
2023-01-30T03:51:06.444Z,62.60
2023-01-30T03:53:38.536Z,62.58
2023-01-30T03:56:10.435Z,62.66
2023-01-30T03:58:42.179Z,62.51
2023-01-30T04:01:27.150Z,62.28
2023-01-30T04:04:07.672Z,62.17
2023-01-30T04:06:39.463Z,62.20
2023-01-30T04:09:11.223Z,61.91
2023-01-30T04:11:49.809Z,62.44
2023-01-30T04:14:22.562Z,62.39
2023-01-30T04:17:19.740Z,61.78
2023-01-30T04:19:54.319Z,61.81
2023-01-30T04:22:26.105Z,62.15
2023-01-30T04:24:58.191Z,61.83
2023-01-30T04:27:32.704Z,62.18
2023-01-30T04:30:18.712Z,61.77
2023-01-30T04:32:52.493Z,61.96
2023-01-30T04:35:27.772Z,61.94
2023-01-30T04:37:59.393Z,62.16
2023-01-30T04:40:32.411Z,61.99
2023-01-30T04:43:04.319Z,62.37
2023-01-30T04:46:02.129Z,62.46
2023-01-30T04:48:37.415Z,62.64
2023-01-30T04:51:09.220Z,62.86
2023-01-30T04:53:42.590Z,62.85
2023-01-30T04:56:14.644Z,62.62
2023-01-30T04:59:06.681Z,62.95
2023-01-30T05:01:43.642Z,62.97
2023-01-30T05:04:18.185Z,62.96
2023-01-30T05:06:49.898Z,63.26
2023-01-30T05:09:26.173Z,63.44
2023-01-30T05:11:58.871Z,63.37
2023-01-30T05:14:30.526Z,63.42
2023-01-30T05:17:02.215Z,63.70
2023-01-30T05:19:34.145Z,63.63
2023-01-30T05:22:05.778Z,63.60
2023-01-30T05:24:40.213Z,63.73
2023-01-30T05:27:11.931Z,63.50
2023-01-30T05:29:43.698Z,63.79
2023-01-30T05:32:17.254Z,64.04
2023-01-30T05:34:49.873Z,64.31
2023-01-30T05:37:22.161Z,64.35
2023-01-30T05:39:53.852Z,64.16
2023-01-30T05:42:25.587Z,64.26
2023-01-30T05:44:57.272Z,64.48
2023-01-30T05:47:30.978Z,64.61
2023-01-30T05:50:04.706Z,64.80
2023-01-30T05:52:39.459Z,64.47
2023-01-30T05:55:11.143Z,64.77
2023-01-30T05:57:42.858Z,64.60
2023-01-30T06:00:16.097Z,64.86
2023-01-30T06:02:47.804Z,64.88
2023-01-30T06:05:22.069Z,64.84
2023-01-30T06:07:53.750Z,64.88
2023-01-30T06:10:28.541Z,64.97
2023-01-30T06:13:00.014Z,64.70
2023-01-30T06:15:31.691Z,64.72
2023-01-30T06:18:03.392Z,65.01
2023-01-30T06:20:35.161Z,64.75
2023-01-30T06:23:06.852Z,65.33
2023-01-30T06:25:38.511Z,65.19
2023-01-30T06:28:10.182Z,65.35
2023-01-30T06:30:42.059Z,65.02
2023-01-30T06:33:14.244Z,65.04
2023-01-30T06:35:51.279Z,65.52
2023-01-30T06:38:22.986Z,65.31
2023-01-30T06:41:01.587Z,65.74
2023-01-30T06:43:33.467Z,65.22
2023-01-30T06:46:05.480Z,65.65
2023-01-30T06:48:39.803Z,65.73
2023-01-30T06:51:11.568Z,65.58
2023-01-30T06:53:43.248Z,65.52
2023-01-30T06:56:14.881Z,65.44
2023-01-30T06:58:46.505Z,65.46
2023-01-30T07:01:19.419Z,65.27
2023-01-30T07:03:51.137Z,65.28
2023-01-30T07:06:22.892Z,65.35
2023-01-30T07:08:56.330Z,65.75
2023-01-30T07:11:28.164Z,65.31
2023-01-30T07:13:59.853Z,65.54
2023-01-30T07:16:31.656Z,65.67
2023-01-30T07:19:06.226Z,65.59
2023-01-30T07:21:37.890Z,65.91
2023-01-30T07:24:09.566Z,66.00
2023-01-30T07:26:41.299Z,65.53
2023-01-30T07:29:13.010Z,66.02
2023-01-30T07:31:44.757Z,65.78
2023-01-30T07:34:16.402Z,66.22
2023-01-30T07:36:50.033Z,66.41
2023-01-30T07:39:21.780Z,66.04
2023-01-30T07:41:55.898Z,65.89
2023-01-30T07:44:30.065Z,66.24
2023-01-30T07:47:01.947Z,66.01
2023-01-30T07:49:36.144Z,65.35
2023-01-30T07:52:08.148Z,63.37
2023-01-30T07:54:39.787Z,63.58
2023-01-30T07:57:11.451Z,64.02
2023-01-30T07:59:43.216Z,63.90
2023-01-30T08:02:14.873Z,64.13
2023-01-30T08:04:46.644Z,64.14
2023-01-30T08:07:18.756Z,64.34
2023-01-30T08:09:50.469Z,64.20
2023-01-30T08:12:22.194Z,64.70
2023-01-30T08:14:54.000Z,64.54
2023-01-30T08:17:25.702Z,64.54
2023-01-30T08:19:57.405Z,64.46
2023-01-30T08:22:32.275Z,64.84
2023-01-30T08:25:08.573Z,64.67
2023-01-30T08:27:40.243Z,65.05
2023-01-30T08:30:12.899Z,65.40
2023-01-30T08:32:44.633Z,65.60
2023-01-30T08:35:17.731Z,65.10
2023-01-30T08:37:49.495Z,65.72
2023-01-30T08:40:21.459Z,65.32
2023-01-30T08:42:54.364Z,65.52
2023-01-30T08:45:26.050Z,65.70
2023-01-30T08:48:04.512Z,65.79
2023-01-30T08:50:36.375Z,65.73
2023-01-30T08:53:11.470Z,66.07
2023-01-30T08:55:44.682Z,66.70
2023-01-30T08:58:16.359Z,66.58
2023-01-30T09:00:49.545Z,66.44
2023-01-30T09:03:21.434Z,66.67
2023-01-30T09:05:56.529Z,66.78
2023-01-30T09:08:31.131Z,66.59
2023-01-30T09:11:05.691Z,66.87
2023-01-30T09:13:38.850Z,67.33
2023-01-30T09:16:11.597Z,67.14
2023-01-30T09:18:44.532Z,67.73
2023-01-30T09:21:16.369Z,67.37
2023-01-30T09:23:48.006Z,67.66
2023-01-30T09:26:19.702Z,67.46
2023-01-30T09:28:51.452Z,67.25
2023-01-30T09:31:23.318Z,66.69
2023-01-30T09:33:55.054Z,66.40
2023-01-30T09:36:26.695Z,66.02
2023-01-30T09:38:58.321Z,66.13
2023-01-30T09:42:24.655Z,65.81
2023-01-30T09:45:05.547Z,65.43
2023-01-30T09:48:04.217Z,65.05
2023-01-30T09:50:44.828Z,65.60
2023-01-30T09:53:32.068Z,64.93
2023-01-30T09:56:04.112Z,65.08
2023-01-30T09:58:57.986Z,65.02
2023-01-30T10:01:53.264Z,65.41
2023-01-30T10:04:33.182Z,65.26
2023-01-30T10:07:10.573Z,66.23
2023-01-30T10:10:29.207Z,66.67
2023-01-30T10:13:19.595Z,67.06
2023-01-30T10:16:01.472Z,67.55
2023-01-30T10:19:11.414Z,67.90
2023-01-30T10:21:52.299Z,68.60
2023-01-30T10:24:52.332Z,69.23
2023-01-30T10:27:25.769Z,68.72
2023-01-30T10:30:05.413Z,68.04
2023-01-30T10:32:46.978Z,67.56
2023-01-30T10:35:22.431Z,68.00
2023-01-30T10:38:19.049Z,67.12
2023-01-30T10:41:08.058Z,67.80
2023-01-30T10:43:53.357Z,66.95
2023-01-30T10:46:43.668Z,66.90
2023-01-30T10:49:49.923Z,66.99
2023-01-30T10:52:36.416Z,65.90
2023-01-30T10:55:36.868Z,66.55
2023-01-30T10:58:26.474Z,65.87
2023-01-30T11:01:04.390Z,65.91
2023-01-30T11:03:42.358Z,65.98
2023-01-30T11:06:26.544Z,66.49
2023-01-30T11:08:58.191Z,66.80
2023-01-30T11:11:48.856Z,66.36
2023-01-30T11:14:21.077Z,65.63
2023-01-30T11:16:57.796Z,66.01
2023-01-30T11:19:37.563Z,65.35
2023-01-30T11:22:14.704Z,65.27
2023-01-30T11:24:46.639Z,64.74
2023-01-30T11:27:29.147Z,64.32
2023-01-30T11:30:14.724Z,63.57
2023-01-30T11:32:50.773Z,63.27
2023-01-30T11:35:30.722Z,63.59
2023-01-30T11:38:28.496Z,63.84
2023-01-30T11:41:05.963Z,63.45
2023-01-30T11:43:39.971Z,62.91
2023-01-30T11:46:16.162Z,63.32
2023-01-30T11:49:02.579Z,62.86
2023-01-30T11:51:54.433Z,63.27
2023-01-30T11:54:34.465Z,62.61
2023-01-30T11:57:11.879Z,62.33
2023-01-30T11:59:48.633Z,62.39
2023-01-30T12:02:23.616Z,62.62
2023-01-30T12:05:01.598Z,63.15
2023-01-30T12:07:37.786Z,62.66
2023-01-30T12:10:27.967Z,59.95
2023-01-30T12:13:21.719Z,58.14
2023-01-30T12:16:19.920Z,57.24
2023-01-30T12:19:30.510Z,56.35
2023-01-30T12:22:21.744Z,55.89
2023-01-30T12:25:30.741Z,56.40
2023-01-30T12:28:15.070Z,56.62
2023-01-30T12:30:52.749Z,57.12
2023-01-30T12:33:29.898Z,58.11
2023-01-30T12:36:25.896Z,58.70
2023-01-30T12:39:03.340Z,58.81
2023-01-30T12:42:23.721Z,59.54
2023-01-30T12:45:03.202Z,59.55
2023-01-30T12:47:37.597Z,59.80
2023-01-30T12:50:27.833Z,60.20
2023-01-30T12:53:21.977Z,60.80
2023-01-30T12:56:14.886Z,61.28
2023-01-30T12:59:09.758Z,62.46
2023-01-30T13:02:15.155Z,63.43
2023-01-30T13:05:06.282Z,63.52
2023-01-30T13:08:15.647Z,63.77
2023-01-30T13:11:03.869Z,63.96
2023-01-30T13:14:16.420Z,64.76
2023-01-30T13:16:57.875Z,64.82
2023-01-30T13:19:49.022Z,64.37
2023-01-30T13:22:22.851Z,65.56
2023-01-30T13:25:23.401Z,62.27
2023-01-30T13:28:09.958Z,60.97
2023-01-30T13:30:44.052Z,60.02
2023-01-30T13:33:28.580Z,58.82
2023-01-30T13:36:18.532Z,58.66
2023-01-30T13:39:00.011Z,58.71
2023-01-30T13:41:42.241Z,58.77
2023-01-30T13:44:27.721Z,58.51
2023-01-30T13:47:11.888Z,58.47
2023-01-30T13:49:52.694Z,68.37
2023-01-30T13:52:34.489Z,63.07
2023-01-30T13:55:06.184Z,57.10
2023-01-30T13:57:58.549Z,56.55
2023-01-30T14:00:33.845Z,56.84
2023-01-30T14:03:08.561Z,57.37
2023-01-30T14:05:52.894Z,60.03
2023-01-30T14:08:31.780Z,57.28
2023-01-30T14:11:37.435Z,56.84
2023-01-30T14:14:30.124Z,57.78
2023-01-30T14:17:11.908Z,57.87
2023-01-30T14:19:59.657Z,58.16
2023-01-30T14:22:52.598Z,58.27
2023-01-30T14:25:30.111Z,58.53
2023-01-30T14:28:01.946Z,58.65
2023-01-30T14:30:48.713Z,59.18
2023-01-30T14:33:23.170Z,59.06
2023-01-30T14:36:00.985Z,59.59
2023-01-30T14:38:34.385Z,59.63
2023-01-30T14:41:06.909Z,60.24
2023-01-30T14:43:41.498Z,60.63
2023-01-30T14:46:16.216Z,60.58
2023-01-30T14:48:49.946Z,60.80
2023-01-30T14:51:53.585Z,60.81
2023-01-30T14:54:41.746Z,61.16
2023-01-30T14:57:27.740Z,61.28
2023-01-30T15:00:17.150Z,61.92
2023-01-30T15:02:55.922Z,61.72
2023-01-30T15:05:32.601Z,61.85
2023-01-30T15:08:13.864Z,61.94
2023-01-30T15:11:13.032Z,62.65
2023-01-30T15:14:12.207Z,62.07
2023-01-30T15:17:13.810Z,62.46
2023-01-30T15:20:15.066Z,62.39
2023-01-30T15:23:32.234Z,62.76
2023-01-30T15:26:24.983Z,62.40
2023-01-30T15:29:12.237Z,63.07
2023-01-30T15:31:59.885Z,62.53
2023-01-30T15:34:34.431Z,62.50
2023-01-30T15:37:28.983Z,62.48
2023-01-30T15:40:30.523Z,63.24
2023-01-30T15:43:39.658Z,62.44
2023-01-30T15:46:21.648Z,62.91
2023-01-30T15:49:08.725Z,63.09
2023-01-30T15:51:40.599Z,62.84
2023-01-30T15:54:17.677Z,63.26
2023-01-30T15:56:50.084Z,63.61
2023-01-30T15:59:31.638Z,64.22
2023-01-30T16:02:29.478Z,64.03
2023-01-30T16:05:28.397Z,64.57
2023-01-30T16:08:17.410Z,65.07
2023-01-30T16:10:52.547Z,64.60
2023-01-30T16:13:24.897Z,65.07
2023-01-30T16:16:10.442Z,65.00
2023-01-30T16:18:59.071Z,65.64
2023-01-30T16:21:35.580Z,65.39
2023-01-30T16:24:24.948Z,65.96
2023-01-30T16:27:01.691Z,66.02
2023-01-30T16:29:44.067Z,65.80
2023-01-30T16:32:15.969Z,66.11
2023-01-30T16:34:47.682Z,66.53
2023-01-30T16:37:20.336Z,66.38
2023-01-30T16:40:14.834Z,67.02
2023-01-30T16:43:02.770Z,66.86
2023-01-30T16:45:57.518Z,67.68
2023-01-30T16:48:35.350Z,68.37
2023-01-30T16:51:22.733Z,68.89
2023-01-30T16:53:59.429Z,68.72
2023-01-30T16:56:35.844Z,69.50
2023-01-30T16:59:19.923Z,68.98
2023-01-30T17:01:54.292Z,69.30
2023-01-30T17:04:29.994Z,69.47
2023-01-30T17:07:04.650Z,69.77
2023-01-30T17:09:44.542Z,69.34
2023-01-30T17:12:30.975Z,69.07
2023-01-30T17:15:14.578Z,68.89
2023-01-30T17:17:46.549Z,69.16
2023-01-30T17:20:18.330Z,68.96
2023-01-30T17:22:52.964Z,69.03
2023-01-30T17:25:32.904Z,68.54
2023-01-30T17:28:06.807Z,68.75
2023-01-30T17:30:40.136Z,68.17
2023-01-30T17:33:13.602Z,68.40
2023-01-30T17:35:45.763Z,68.72
2023-01-30T17:38:20.419Z,68.49
2023-01-30T17:40:52.201Z,67.78
2023-01-30T17:43:25.153Z,68.15
2023-01-30T17:45:57.752Z,67.52
2023-01-30T17:48:29.909Z,67.86
2023-01-30T17:51:01.596Z,67.51
2023-01-30T17:53:35.265Z,66.96
2023-01-30T17:56:22.493Z,66.90
2023-01-30T17:58:56.485Z,66.97
2023-01-30T18:01:28.974Z,67.22
2023-01-30T18:04:02.034Z,66.94
2023-01-30T18:06:34.907Z,67.40
2023-01-30T18:09:06.912Z,66.54
2023-01-30T18:11:38.964Z,66.98
2023-01-30T18:14:10.660Z,66.54
2023-01-30T18:16:45.843Z,66.01
2023-01-30T18:19:18.491Z,66.17
2023-01-30T18:21:50.270Z,66.23
2023-01-30T18:24:21.908Z,66.41
2023-01-30T18:26:53.623Z,66.35
2023-01-30T18:29:25.344Z,66.06
2023-01-30T18:31:57.831Z,65.99
2023-01-30T18:34:29.549Z,65.74
2023-01-30T18:37:01.277Z,64.91
2023-01-30T18:39:33.450Z,64.73
2023-01-30T18:42:08.141Z,64.17
2023-01-30T18:44:39.978Z,64.36
2023-01-30T18:47:11.685Z,64.21
2023-01-30T18:49:43.374Z,63.42
2023-01-30T18:52:15.057Z,63.63
2023-01-30T18:54:46.819Z,63.33
2023-01-30T18:57:18.558Z,63.06
2023-01-30T18:59:52.982Z,62.57
2023-01-30T19:02:28.716Z,62.41
2023-01-30T19:05:00.512Z,62.45
2023-01-30T19:07:32.278Z,62.52
2023-01-30T19:10:04.435Z,62.14
2023-01-30T19:12:54.642Z,62.35
2023-01-30T19:15:41.141Z,62.08
2023-01-30T19:18:14.997Z,61.63
2023-01-30T19:20:50.084Z,61.70
2023-01-30T19:23:26.557Z,61.66
2023-01-30T19:26:02.513Z,61.52
2023-01-30T19:28:35.419Z,61.63
2023-01-30T19:31:09.348Z,62.23
2023-01-30T19:33:42.094Z,61.01
2023-01-30T19:36:19.857Z,61.57
2023-01-30T19:38:52.456Z,60.86
2023-01-30T19:41:35.529Z,61.62
2023-01-30T19:44:09.739Z,60.75
2023-01-30T19:46:42.569Z,60.70
2023-01-30T19:49:14.377Z,60.30
2023-01-30T19:51:46.111Z,60.56
2023-01-30T19:54:24.627Z,60.52
2023-01-30T19:56:59.789Z,60.50
2023-01-30T19:59:38.512Z,60.44
2023-01-30T20:02:10.511Z,60.54
2023-01-30T20:04:43.469Z,61.02
2023-01-30T20:07:15.148Z,59.96
2023-01-30T20:09:46.778Z,59.63
2023-01-30T20:12:21.369Z,59.94
2023-01-30T20:14:53.256Z,59.89
2023-01-30T20:17:25.063Z,59.21
2023-01-30T20:19:57.442Z,58.77
2023-01-30T20:22:29.236Z,59.02
2023-01-30T20:25:00.949Z,58.81
2023-01-30T20:27:33.187Z,58.77
2023-01-30T20:30:06.782Z,59.07
2023-01-30T20:32:38.473Z,59.00
2023-01-30T20:35:10.672Z,58.83
2023-01-30T20:37:42.709Z,59.06
2023-01-30T20:40:14.881Z,58.65
2023-01-30T20:42:49.883Z,58.88
2023-01-30T20:45:21.601Z,58.57
2023-01-30T20:47:53.366Z,58.23
2023-01-30T20:50:27.459Z,58.51
2023-01-30T20:53:02.151Z,58.18
2023-01-30T20:55:34.088Z,58.28
2023-01-30T20:58:05.756Z,58.20
2023-01-30T21:00:37.414Z,57.97
2023-01-30T21:03:09.171Z,57.67
2023-01-30T21:05:44.076Z,58.14
2023-01-30T21:08:21.300Z,57.76
2023-01-30T21:10:54.063Z,57.83
2023-01-30T21:13:28.642Z,57.73
2023-01-30T21:16:24.059Z,56.95
2023-01-30T21:19:01.362Z,56.70
2023-01-30T21:21:41.305Z,56.71
2023-01-30T21:24:14.681Z,56.56
2023-01-30T21:26:50.160Z,56.73
2023-01-30T21:29:23.787Z,56.54
2023-01-30T21:32:00.059Z,56.84
2023-01-30T21:34:33.267Z,56.67
2023-01-30T21:37:26.372Z,57.14
2023-01-30T21:40:16.652Z,57.13
2023-01-30T21:43:07.037Z,57.09
2023-01-30T21:45:39.174Z,57.12
2023-01-30T21:48:10.925Z,57.09
2023-01-30T21:50:42.623Z,57.23
2023-01-30T21:53:16.319Z,57.55
2023-01-30T21:55:52.696Z,57.84
2023-01-30T21:58:24.426Z,57.96
2023-01-30T22:01:05.154Z,58.55
2023-01-30T22:03:40.092Z,59.48
2023-01-30T22:06:11.660Z,59.97
2023-01-30T22:08:43.423Z,61.27
2023-01-30T22:11:20.184Z,60.85
2023-01-30T22:13:52.513Z,61.77
2023-01-30T22:16:26.835Z,62.05
2023-01-30T22:19:01.924Z,62.70
2023-01-30T22:21:37.383Z,62.63
2023-01-30T22:24:12.324Z,62.74
2023-01-30T22:26:43.871Z,62.81
2023-01-30T22:29:18.069Z,62.73
2023-01-30T22:31:49.888Z,62.23
2023-01-30T22:34:22.668Z,62.15
2023-01-30T22:36:54.451Z,62.04
2023-01-30T22:39:26.455Z,61.91
2023-01-30T22:42:01.131Z,61.55
2023-01-30T22:44:32.791Z,61.70
2023-01-30T22:47:04.662Z,61.09
2023-01-30T22:49:36.411Z,61.44
2023-01-30T22:52:11.708Z,61.25
2023-01-30T22:54:46.430Z,60.84
2023-01-30T22:57:18.136Z,61.53
2023-01-30T22:59:51.865Z,61.05
2023-01-30T23:02:23.553Z,61.19
2023-01-30T23:04:55.253Z,61.34
2023-01-30T23:07:27.031Z,61.46
2023-01-30T23:09:58.705Z,61.23
2023-01-30T23:12:48.937Z,61.33
2023-01-30T23:15:20.936Z,60.96
2023-01-30T23:18:15.510Z,61.00
2023-01-30T23:20:47.143Z,61.28
2023-01-30T23:23:21.660Z,61.57
2023-01-30T23:25:53.308Z,61.00
2023-01-30T23:28:25.056Z,61.07
2023-01-30T23:30:56.707Z,61.18
2023-01-30T23:33:28.406Z,61.30
2023-01-30T23:36:08.845Z,61.49
2023-01-30T23:38:41.766Z,61.25
2023-01-30T23:41:15.847Z,61.23
2023-01-30T23:43:48.590Z,61.27
2023-01-30T23:46:25.729Z,61.69
2023-01-30T23:49:00.166Z,62.64
2023-01-30T23:51:36.558Z,62.47
2023-01-30T23:54:09.330Z,63.15
2023-01-30T23:56:44.276Z,63.36
2023-01-30T23:59:16.413Z,63.32
